createdAt,value
2019-04-01T00:04:09.264Z,100121.48
2019-04-01T00:09:12.342Z,100118.63
2019-04-01T00:14:15.351Z,100126.75
2019-04-01T00:19:18.477Z,100123.26
2019-04-01T00:24:21.476Z,100119.64
2019-04-01T00:29:24.543Z,100121.83
2019-04-01T00:34:27.516Z,100126.67
2019-04-01T00:39:30.873Z,100127.73
2019-04-01T00:44:33.871Z,100122.84
2019-04-01T00:49:36.885Z,100126.62
2019-04-01T00:54:39.856Z,100134.92
2019-04-01T00:59:42.941Z,100124.09
2019-04-01T01:04:45.963Z,100126.68
2019-04-01T01:09:48.983Z,100132.27
2019-04-01T01:14:52.052Z,100132.10
2019-04-01T01:19:55.401Z,100139.44
2019-04-01T01:24:58.388Z,100138.80
2019-04-01T01:30:01.591Z,100146.45
2019-04-01T01:35:05.078Z,100149.78
2019-04-01T01:40:08.199Z,100152.93
2019-04-01T01:45:11.174Z,100155.61
2019-04-01T01:50:14.393Z,100158.58
2019-04-01T01:55:17.357Z,100168.94
2019-04-01T02:00:21.059Z,100176.39
2019-04-01T02:05:24.059Z,100173.42
2019-04-01T02:10:27.164Z,100179.15
2019-04-01T02:15:30.119Z,100185.77
2019-04-01T02:20:33.533Z,100200.88
2019-04-01T02:25:36.664Z,100202.52
2019-04-01T02:30:39.965Z,100204.68
2019-04-01T02:35:43.180Z,100210.90
2019-04-01T02:40:46.411Z,100221.73
2019-04-01T02:45:49.496Z,100229.42
2019-04-01T02:50:52.444Z,100233.34
2019-04-01T02:55:55.414Z,100241.73
2019-04-01T03:00:58.412Z,100241.25
2019-04-01T03:06:01.484Z,100247.31
2019-04-01T03:11:04.675Z,100247.66
2019-04-01T03:16:07.606Z,100253.23
2019-04-01T03:21:10.696Z,100250.30
2019-04-01T03:26:14.026Z,100253.08
2019-04-01T03:31:17.047Z,100258.31
2019-04-01T03:36:19.982Z,100268.00
2019-04-01T03:41:23.127Z,100272.41
2019-04-01T03:46:26.119Z,100273.24
2019-04-01T03:51:29.182Z,100278.66
2019-04-01T03:56:32.123Z,100278.84
2019-04-01T04:01:35.455Z,100283.91
2019-04-01T04:06:38.441Z,100278.36
2019-04-01T04:11:41.446Z,100286.68
2019-04-01T04:16:44.571Z,100283.58
2019-04-01T04:21:47.554Z,100286.85
2019-04-01T04:26:50.636Z,100293.26
2019-04-01T04:31:53.818Z,100291.28
2019-04-01T04:36:56.991Z,100299.69
2019-04-01T04:42:00.218Z,100304.11
2019-04-01T04:47:03.622Z,100300.33
2019-04-01T04:52:06.693Z,100306.56
2019-04-01T04:57:09.658Z,100304.27
2019-04-01T05:02:13.282Z,100312.28
2019-04-01T05:07:16.838Z,100314.33
2019-04-01T05:12:19.907Z,100315.77
2019-04-01T05:17:22.948Z,100319.77
2019-04-01T05:22:26.350Z,100321.41
2019-04-01T05:27:33.432Z,100333.70
2019-04-01T05:32:37.231Z,100329.15
2019-04-01T05:37:40.440Z,100326.25
2019-04-01T05:42:43.391Z,100338.22
2019-04-01T05:47:49.097Z,100338.25
2019-04-01T05:52:52.067Z,100342.03
2019-04-01T05:57:55.927Z,100350.39
2019-04-01T06:02:58.919Z,100358.11
2019-04-01T06:08:02.325Z,100360.25
2019-04-01T06:13:05.675Z,100359.59
2019-04-01T06:18:08.839Z,100364.20
2019-04-01T06:23:11.853Z,100359.61
2019-04-01T06:28:15.206Z,100367.16
2019-04-01T06:33:18.344Z,100362.13
2019-04-01T06:38:21.929Z,100369.54
2019-04-01T06:43:25.254Z,100374.95
2019-04-01T06:48:28.353Z,100376.67
2019-04-01T06:53:31.736Z,100380.91
2019-04-01T06:58:35.461Z,100376.47
2019-04-01T07:03:38.412Z,100371.11
2019-04-01T07:08:41.447Z,100386.53
2019-04-01T07:13:44.557Z,100384.57
2019-04-01T07:18:47.839Z,100395.86
2019-04-01T07:23:50.902Z,100396.23
2019-04-01T07:28:54.602Z,100389.55
2019-04-01T07:33:57.649Z,100392.67
2019-04-01T07:39:00.676Z,100396.56
2019-04-01T07:44:03.890Z,100394.03
2019-04-01T07:49:06.963Z,100394.91
2019-04-01T07:54:10.432Z,100396.18
2019-04-01T07:59:13.608Z,100390.27
2019-04-01T08:04:16.738Z,100390.88
2019-04-01T08:09:19.962Z,100393.29
2019-04-01T08:14:22.970Z,100398.41
2019-04-01T08:19:25.927Z,100406.61
2019-04-01T08:24:28.946Z,100412.38
2019-04-01T08:29:32.024Z,100413.20
2019-04-01T08:34:35.169Z,100408.50
2019-04-01T08:39:38.121Z,100407.42
2019-04-01T08:44:41.408Z,100408.05
2019-04-01T08:49:44.574Z,100406.31
2019-04-01T08:54:47.705Z,100393.95
2019-04-01T08:59:50.984Z,100399.73
2019-04-01T09:04:54.092Z,100387.39
2019-04-01T09:09:57.711Z,100387.98
2019-04-01T09:15:01.810Z,100388.42
2019-04-01T09:20:05.311Z,100380.30
2019-04-01T09:25:08.613Z,100379.15
2019-04-01T09:30:12.120Z,100380.56
2019-04-01T09:35:15.297Z,100380.89
2019-04-01T09:40:18.432Z,100371.94
2019-04-01T09:45:21.569Z,100381.55
2019-04-01T09:50:24.567Z,100373.15
2019-04-01T09:55:27.572Z,100369.52
2019-04-01T10:00:30.564Z,100370.62
2019-04-01T10:05:33.630Z,100369.21
2019-04-01T10:10:36.695Z,100358.97
2019-04-01T10:15:39.653Z,100365.13
2019-04-01T10:20:42.769Z,100359.31
2019-04-01T10:25:45.816Z,100355.34
2019-04-01T10:30:48.802Z,100351.92
2019-04-01T10:35:51.926Z,100349.27
2019-04-01T10:40:54.888Z,100350.91
2019-04-01T10:45:57.924Z,100359.50
2019-04-01T10:51:01.069Z,100348.92
2019-04-01T10:56:04.416Z,100354.02
2019-04-01T11:01:07.425Z,100343.56
2019-04-01T11:06:10.687Z,100346.44
2019-04-01T11:11:14.110Z,100342.76
2019-04-01T11:16:17.212Z,100344.33
2019-04-01T11:21:20.258Z,100334.14
2019-04-01T11:26:23.316Z,100337.47
2019-04-01T11:31:26.599Z,100339.28
2019-04-01T11:36:29.787Z,100337.26
2019-04-01T11:41:32.831Z,100324.78
2019-04-01T11:46:35.840Z,100324.17
2019-04-01T11:51:40.196Z,100311.28
2019-04-01T11:56:43.721Z,100309.41
2019-04-01T12:01:47.541Z,100306.98
2019-04-01T12:06:51.418Z,100301.99
2019-04-01T12:11:54.615Z,100289.06
2019-04-01T12:16:57.593Z,100283.36
2019-04-01T12:22:00.674Z,100285.84
2019-04-01T12:27:03.722Z,100277.00
2019-04-01T12:32:06.856Z,100268.97
2019-04-01T12:37:09.929Z,100264.48
2019-04-01T12:42:13.157Z,100270.97
2019-04-01T12:47:16.685Z,100255.45
2019-04-01T12:52:19.820Z,100255.12
2019-04-01T12:57:22.954Z,100248.88
2019-04-01T13:02:26.026Z,100242.45
2019-04-01T13:07:29.045Z,100240.11
2019-04-01T13:12:32.453Z,100243.02
2019-04-01T13:17:35.575Z,100235.69
2019-04-01T13:22:38.732Z,100231.95
2019-04-01T13:27:41.753Z,100225.01
2019-04-01T13:32:44.761Z,100220.23
2019-04-01T13:37:47.755Z,100212.48
2019-04-01T13:42:50.823Z,100214.50
2019-04-01T13:47:53.860Z,100211.95
2019-04-01T13:52:57.121Z,100208.60
2019-04-01T13:58:00.491Z,100199.23
2019-04-01T14:03:03.543Z,100199.73
2019-04-01T14:08:06.582Z,100195.56
2019-04-01T14:13:09.564Z,100197.77
2019-04-01T14:18:12.685Z,100186.27
2019-04-01T14:23:15.656Z,100185.45
2019-04-01T14:28:18.619Z,100181.39
2019-04-01T14:33:21.659Z,100182.48
2019-04-01T14:38:25.386Z,100177.91
2019-04-01T14:43:31.098Z,100173.34
2019-04-01T14:48:33.280Z,100173.72
2019-04-01T14:53:37.812Z,100166.31
2019-04-01T14:58:41.147Z,100167.44
2019-04-01T15:03:44.153Z,100156.83
2019-04-01T15:08:48.190Z,100152.87
2019-04-01T15:13:51.739Z,100147.66
2019-04-01T15:18:54.700Z,100151.44
2019-04-01T15:23:58.170Z,100142.77
2019-04-01T15:29:01.307Z,100147.95
2019-04-01T15:34:04.650Z,100146.02
2019-04-01T15:39:11.541Z,100139.95
2019-04-01T15:44:14.555Z,100135.42
2019-04-01T15:49:17.718Z,100133.94
2019-04-01T15:54:20.779Z,100129.05
2019-04-01T15:59:23.873Z,100144.12
2019-04-01T16:04:26.861Z,100139.89
2019-04-01T16:09:29.999Z,100143.86
2019-04-01T16:14:32.986Z,100142.30
2019-04-01T16:19:36.150Z,100143.07
2019-04-01T16:24:39.602Z,100141.19
2019-04-01T16:29:45.708Z,100141.28
2019-04-01T16:34:48.691Z,100154.45
2019-04-01T16:39:54.433Z,100148.59
2019-04-01T16:44:56.866Z,100153.03
2019-04-01T16:49:59.891Z,100144.00
2019-04-01T16:55:06.786Z,100146.48
2019-04-01T17:00:14.469Z,100151.16
2019-04-01T17:05:24.152Z,100155.75
2019-04-01T17:10:28.051Z,100153.05
2019-04-01T17:15:31.039Z,100170.72
2019-04-01T17:20:34.161Z,100169.62
2019-04-01T17:25:37.542Z,100177.83
2019-04-01T17:30:40.815Z,100182.34
2019-04-01T17:35:43.991Z,100187.09
2019-04-01T17:40:47.181Z,100193.65
2019-04-01T17:45:50.275Z,100199.08
2019-04-01T17:50:53.717Z,100208.94
2019-04-01T17:55:56.847Z,100213.03
2019-04-01T18:01:00.202Z,100212.66
2019-04-01T18:06:03.642Z,100220.66
2019-04-01T18:11:06.641Z,100230.29
2019-04-01T18:16:09.939Z,100234.03
2019-04-01T18:21:13.057Z,100245.95
2019-04-01T18:26:17.129Z,100249.98
2019-04-01T18:31:21.214Z,100250.84
2019-04-01T18:36:24.195Z,100253.70
2019-04-01T18:41:27.313Z,100261.50
2019-04-01T18:46:30.632Z,100266.45
2019-04-01T18:51:36.444Z,100271.43
2019-04-01T18:56:38.679Z,100267.70
2019-04-01T19:01:42.246Z,100274.30
2019-04-01T19:06:45.343Z,100279.42
2019-04-01T19:11:48.349Z,100283.22
2019-04-01T19:16:51.426Z,100284.09
2019-04-01T19:21:54.612Z,100278.02
2019-04-01T19:26:57.820Z,100286.09
2019-04-01T19:32:00.886Z,100280.34
2019-04-01T19:37:03.958Z,100281.33
2019-04-01T19:42:07.031Z,100284.79
2019-04-01T19:47:10.072Z,100285.48
2019-04-01T19:52:13.158Z,100290.25
2019-04-01T19:57:16.612Z,100285.04
2019-04-01T20:02:19.709Z,100290.45
2019-04-01T20:07:22.780Z,100293.26
2019-04-01T20:12:25.804Z,100295.06
2019-04-01T20:17:29.029Z,100294.27
2019-04-01T20:22:32.241Z,100300.82
2019-04-01T20:27:35.598Z,100295.58
2019-04-01T20:32:38.972Z,100296.39
2019-04-01T20:37:42.725Z,100292.14
2019-04-01T20:42:46.581Z,100290.81
2019-04-01T20:47:50.503Z,100292.44
2019-04-01T20:52:53.898Z,100292.44
2019-04-01T20:57:57.293Z,100283.92
2019-04-01T21:03:01.308Z,100287.67
2019-04-01T21:08:05.066Z,100285.55
2019-04-01T21:13:08.169Z,100289.31
2019-04-01T21:18:11.486Z,100288.47
2019-04-01T21:23:14.613Z,100289.79
2019-04-01T21:28:17.775Z,100287.30
2019-04-01T21:33:20.807Z,100288.62
2019-04-01T21:38:24.111Z,100292.36
2019-04-01T21:43:27.211Z,100290.59
2019-04-01T21:48:30.215Z,100279.08
2019-04-01T21:53:33.201Z,100280.72
2019-04-01T21:58:36.479Z,100277.77
2019-04-01T22:03:39.809Z,100277.08
2019-04-01T22:08:43.118Z,100278.34
2019-04-01T22:13:46.442Z,100282.45
2019-04-01T22:18:49.556Z,100288.30
2019-04-01T22:23:52.675Z,100283.22
2019-04-01T22:28:55.826Z,100289.73
2019-04-01T22:33:58.831Z,100277.60
2019-04-01T22:39:04.277Z,100284.76
2019-04-01T22:44:07.619Z,100280.61
2019-04-01T22:49:12.041Z,100282.41
2019-04-01T22:54:16.175Z,100278.14
2019-04-01T22:59:20.199Z,100271.05
2019-04-01T23:04:23.417Z,100258.88
2019-04-01T23:09:26.624Z,100264.05
2019-04-01T23:14:29.742Z,100260.42
2019-04-01T23:19:34.503Z,100254.31
2019-04-01T23:24:38.172Z,100253.64
2019-04-01T23:29:41.207Z,100251.11
2019-04-01T23:34:44.316Z,100242.02
2019-04-01T23:39:47.590Z,100244.56
2019-04-01T23:44:51.276Z,100235.97
2019-04-01T23:49:55.313Z,100236.66
2019-04-01T23:54:59.217Z,100228.53
